• Join FlightAware (Why Join?)
  • Login
  • US Flag 
01:47PM EDT


 

Airport Tracker/Info


-or-


 

Live Flight TrackerFlight Track Log ✈ AAL832 ✈ 26-Apr-2013 ✈ KLAX - KORD

Flight Track Log - Related Links

Times and Time Zones

All times are in EDT time to prevent confusion due to time zone crossing. See the AAL832 flight status page for this flight to view local times or setup timezone preferences in your user account.

Time Position Orientation Groundspeed Altitude Reporting Facility
EDT Latitude Longitude Course Direction KTS MPH feet Rate Location/Type
12:16PM 33.9225 -118.4675 90° East 208 239 2,500  Level Los Angeles Center
12:17PM 33.8131 -118.1297 140° Southeast  Level FlightAware Approximate
12:17PM 33.8822 -118.5267 231° Southwest 229 264 5,200  Level Los Angeles Center
12:18PM 33.7667 -117.9898 90° East  Level FlightAware Approximate
12:18PM 33.8108 -118.5397 189° South 272 313 7,700  Level Los Angeles Center
12:19PM 33.7662 -117.8314 107° East  Level FlightAware Approximate
12:19PM 33.7319 -118.5297 174° South 288 331 10,500  Level Los Angeles Center
12:20PM 33.7410 -117.6765 97° East  Level FlightAware Approximate
12:20PM 33.6478 -118.5025 165° South 328 377 12,600  Level Los Angeles Center
12:21PM 33.7333 -117.5186 90° East  Level FlightAware Approximate
12:21PM 33.6081 -118.3850 112° Southeast 329 379 15,400  Level Los Angeles Center
12:22PM 33.5814 -118.2672 105° East 371 427 16,500 1,440 Climbing Los Angeles Center
12:23PM 33.5519 -118.1375 105° East 405 466 18,400 1,920 Climbing Los Angeles Center
12:24PM 33.5214 -118.0028 105° East 420 483 20,500 1,920 Climbing Los Angeles Center
12:25PM 33.4906 -117.8650 105° East 430 495 22,400 1,860 Climbing Los Angeles Center
12:26PM 33.4861 -117.6886 92° East 448 516 24,400 1,740 Climbing Los Angeles Center
12:27PM 33.5003 -117.5403 83° East 452 520 26,000 1,500 Climbing Los Angeles Center
12:28PM 33.5153 -117.3869 83° East 464 534 27,500 1,380 Climbing Los Angeles Center
12:29PM 33.5303 -117.2283 83° East 477 549 28,900 1,440 Climbing Los Angeles Center
12:30PM 33.5486 -117.0439 83° East 483 556 30,500 1,500 Climbing Los Angeles Center
12:31PM 33.5800 -116.8847 77° East 491 565 32,000 1,380 Climbing Los Angeles Center
12:32PM 33.6169 -116.7297 74° East 485 558 33,400 1,380 Climbing Los Angeles Center
12:33PM 33.6547 -116.5736 74° East 485 558 34,900 1,200 Climbing Los Angeles Center
12:34PM 33.6914 -116.4192 74° East 482 555 35,900 900 Climbing Los Angeles Center
12:35PM 33.7294 -116.2625 74° East 487 560 36,800 480 Climbing Los Angeles Center
12:36PM 33.7739 -116.0722 74° East 491 565 37,000 60 Climbing Los Angeles Center
12:37PM 33.8122 -115.9144 74° East 490 564 37,000  Level Los Angeles Center
12:38PM 33.8494 -115.7569 74° East 491 565 37,000  Level Los Angeles Center
12:40PM 33.8869 -115.5986 74° East 491 565 37,000  Level Los Angeles Center
12:41PM 33.9242 -115.4386 74° East 495 570 37,000  Level Los Angeles Center
12:42PM 33.9608 -115.2772 75° East 498 573 37,000  Level Los Angeles Center
12:43PM 33.9983 -115.1169 74° East 498 573 37,000  Level Los Angeles Center
12:44PM 34.0431 -114.9236 74° East 499 574 37,000  Level Los Angeles Center
12:45PM 34.0808 -114.7614 74° East 501 577 37,000  Level Los Angeles Center
12:46PM 34.1231 -114.5994 72° East 504 580 37,000  Level Los Angeles Center
12:47PM 34.1692 -114.4408 71° East 502 578 37,000  Level Los Angeles Center
12:48PM 34.2147 -114.2817 71° East 501 577 37,000  Level Los Angeles Center
12:49PM 34.2683 -114.0917 71° East 497 572 37,000  Level Los Angeles Center
12:50PM 34.3133 -113.9289 71° East 508 585 37,000  Level Los Angeles Center
12:51PM 34.3581 -113.7678 71° East 506 582 37,000  Level Los Angeles Center
12:52PM 34.4047 -113.6053 71° East 517 595 37,000  Level Los Angeles Center
12:53PM 34.4478 -113.4447 72° East 510 587 37,000  Level Los Angeles Center
12:54PM 34.5000 -113.2536 72° East 505 581 37,000  Level Albuquerque Center
12:55PM 34.5528 -113.0592 72° East 508 585 37,000  Level Albuquerque Center
12:56PM 34.5950 -112.8994 72° East 505 581 37,000  Level Albuquerque Center
12:57PM 34.6381 -112.7386 72° East 506 582 37,000  Level Albuquerque Center
12:58PM 34.6808 -112.5781 72° East 506 582 37,000  Level Albuquerque Center
12:59PM 34.7214 -112.4164 73° East 506 582 37,000  Level Albuquerque Center
01:00PM 34.7636 -112.2211 75° East 505 581 37,000  Level Albuquerque Center
01:01PM 34.7994 -112.0608 75° East 502 578 37,000  Level Albuquerque Center
01:02PM 34.8339 -111.9042 75° East 494 568 37,000  Level Albuquerque Center
01:03PM 34.8689 -111.7464 75° East 487 560 37,000  Level Albuquerque Center
01:05PM 34.9067 -111.5781 75° East 498 573 37,000  Level Albuquerque Center
01:06PM 34.9436 -111.4114 75° East 506 582 37,000  Level Albuquerque Center
01:07PM 34.9881 -111.2111 75° East 509 586 37,000  Level Albuquerque Center
01:08PM 35.0242 -111.0450 75° East 508 585 37,000  Level Albuquerque Center
01:09PM 35.0606 -110.8767 75° East 511 588 37,000  Level Albuquerque Center
01:10PM 35.1014 -110.6875 75° East 511 588 37,000  Level Albuquerque Center
01:11PM 35.1364 -110.5275 75° East 509 586 37,000  Level Albuquerque Center
01:12PM 35.1706 -110.3669 75° East 510 587 37,000  Level Albuquerque Center
01:13PM 35.2094 -110.1803 76° East 508 585 37,000  Level Albuquerque Center
01:14PM 35.2442 -110.0211 75° East 508 585 37,000  Level Albuquerque Center
01:15PM 35.2836 -109.8339 75° East 509 586 37,000  Level Albuquerque Center
01:16PM 35.3167 -109.6736 76° East 509 586 37,000  Level Albuquerque Center
01:17PM 35.3556 -109.4858 76° East 510 587 37,000  Level Albuquerque Center
01:18PM 35.3883 -109.3247 76° East 511 588 37,000  Level Albuquerque Center
01:19PM 35.4258 -109.1361 76° East 512 589 37,000  Level Albuquerque Center
01:20PM 35.4583 -108.9747 76° East 512 589 37,000  Level Albuquerque Center
01:21PM 35.5011 -108.7861 74° East 515 593 37,000  Level Albuquerque Center
01:22PM 35.5461 -108.6292 71° East 514 592 37,000  Level Albuquerque Center
01:23PM 35.5961 -108.4444 72° East 514 592 37,000  Level Albuquerque Center
01:24PM 35.6381 -108.2836 72° East 517 595 37,000  Level Albuquerque Center
01:25PM 35.6861 -108.0994 72° East 513 590 37,000  Level Albuquerque Center
01:26PM 35.7264 -107.9408 73° East 510 587 37,000  Level Albuquerque Center
01:27PM 35.7747 -107.7544 72° East 513 590 37,000  Level Albuquerque Center
01:28PM 35.8164 -107.5936 72° East 515 593 37,000  Level Albuquerque Center
01:29PM 35.8656 -107.4069 72° East 515 593 37,000  Level Albuquerque Center
01:30PM 35.9064 -107.2456 73° East 516 594 37,000  Level Albuquerque Center
01:31PM 35.9553 -107.0575 72° East 517 595 37,000  Level Albuquerque Center
01:32PM 35.9992 -106.8892 72° East 515 593 37,000  Level Albuquerque Center
01:33PM 36.0414 -106.7200 73° East 514 592 37,000  Level Albuquerque Center
01:35PM 36.0839 -106.5517 73° East 513 590 37,000  Level Albuquerque Center
01:36PM 36.1272 -106.3828 72° East 514 592 37,000  Level Albuquerque Center
01:37PM 36.1686 -106.2136 73° East 513 590 37,000  Level Albuquerque Center
01:38PM 36.2100 -106.0439 73° East 513 590 37,000  Level Albuquerque Center
01:39PM 36.2597 -105.8386 73° East 518 596 37,000  Level Albuquerque Center
01:40PM 36.3006 -105.6683 73° East 518 596 37,000  Level Albuquerque Center
01:41PM 36.3433 -105.4875 74° East 511 588 37,000  Level Albuquerque Center
01:42PM 36.3836 -105.3164 74° East 511 588 37,000  Level Albuquerque Center
01:43PM 36.4236 -105.1458 74° East 510 587 37,000  Level Albuquerque Center
01:44PM 36.4636 -104.9742 74° East 511 588 37,000  Level Albuquerque Center
01:45PM 36.5111 -104.8044 71° East 514 592 37,000  Level Albuquerque Center
01:46PM 36.5719 -104.6419 65° Northeast 512 589 37,000  Level Albuquerque Center
01:47PM 36.6419 -104.4542 65° Northeast 509 586 37,000  Level Albuquerque Center
01:48PM 36.6992 -104.2972 66° East 511 588 37,000  Level Albuquerque Center
01:49PM 36.7550 -104.1433 66° East 511 588 37,000  Level Albuquerque Center
01:50PM 36.8197 -103.9636 66° East 511 588 37,000  Level Albuquerque Center
01:51PM 36.8753 -103.8092 66° East 512 589 37,000  Level Albuquerque Center
01:52PM 36.9392 -103.6306 66° East 509 586 37,000  Level Albuquerque Center
01:53PM 36.9936 -103.4750 66° East 511 588 37,000  Level Albuquerque Center
01:54PM 37.0567 -103.2947 66° East 511 588 37,000  Level Albuquerque Center
01:55PM 37.1097 -103.1417 66° East 506 582 37,000  Level Albuquerque Center
01:56PM 37.1731 -102.9619 66° East 506 582 37,000  Level Albuquerque Center
01:57PM 37.2289 -102.8050 66° East 512 589 37,000  Level Albuquerque Center
01:58PM 37.2906 -102.6225 67° East 510 587 37,000  Level Albuquerque Center
01:59PM 37.3444 -102.4672 66° East 509 586 37,000  Level Albuquerque Center
02:00PM 37.4086 -102.2833 66° East 513 590 37,000  Level Albuquerque Center
02:01PM 37.4667 -102.1100 67° East 518 596 37,000  Level Albuquerque Center
02:02PM 37.5206 -101.9489 67° East 521 600 37,000  Level Albuquerque Center
02:04PM 37.5844 -101.7592 67° East 524 603 37,000  Level Kansas City Center
02:05PM 37.6467 -101.5689 68° East 525 604 37,000 120 Level Kansas City Center
02:06PM 37.7003 -101.4053 67° East 525 604 37,300 780 Climbing Kansas City Center
02:07PM 37.7614 -101.2183 67° East 518 596 38,600 780 Climbing Kansas City Center
02:08PM 37.8136 -101.0550 68° East 517 595 39,000 180 Climbing Kansas City Center
02:09PM 37.8758 -100.8636 68° East 518 596 39,000  Level Kansas City Center
02:10PM 37.9289 -100.7019 67° East 516 594 39,000  Level Kansas City Center
02:11PM 37.9822 -100.5456 67° East 508 585 39,000  Level Kansas City Center
02:12PM 38.0450 -100.3642 66° East 502 578 39,000  Level Kansas City Center
02:13PM 38.0967 -100.2078 67° East 502 578 39,000  Level Kansas City Center
02:14PM 38.1581 -100.0242 67° East 505 581 39,000  Level Kansas City Center
02:15PM 38.2108 -99.8661 67° East 506 582 39,000  Level Kansas City Center
02:16PM 38.2708 -99.6811 68° East 507 583 39,000  Level Kansas City Center
02:17PM 38.3222 -99.5250 67° East 502 578 39,000  Level Kansas City Center
02:18PM 38.3742 -99.3650 67° East 501 577 39,000  Level Kansas City Center
02:19PM 38.4286 -99.2006 67° East 502 578 39,000  Level Kansas City Center
02:20PM 38.4806 -99.0353 68° East 502 578 39,000  Level Kansas City Center
02:21PM 38.5347 -98.8714 67° East 501 577 39,000  Level Kansas City Center
02:22PM 38.5983 -98.6706 68° East 503 579 39,000  Level Kansas City Center
02:23PM 38.6519 -98.5056 67° East 500 575 39,000  Level Kansas City Center
02:24PM 38.7039 -98.3383 68° East 503 579 39,000  Level Kansas City Center
02:25PM 38.7553 -98.1731 68° East 499 574 39,000  Level Kansas City Center
02:26PM 38.8067 -98.0067 68° East 499 574 39,000  Level Kansas City Center
02:27PM 38.8656 -97.8186 68° East 500 575 39,000  Level Kansas City Center
02:28PM 38.9142 -97.6597 68° East 500 575 39,000  Level Kansas City Center
02:29PM 38.9581 -97.5072 70° East 498 573 39,000  Level Kansas City Center
02:30PM 39.0086 -97.3125 71° East 496 571 39,000  Level Kansas City Center
02:31PM 39.0517 -97.1508 71° East 499 574 39,000  Level Kansas City Center
02:33PM 39.1014 -96.9622 71° East 498 573 39,000  Level Kansas City Center
02:34PM 39.1444 -96.8000 71° East 501 577 39,000  Level Kansas City Center
02:35PM 39.1944 -96.6089 71° East 502 578 39,000  Level Kansas City Center
02:36PM 39.2344 -96.4442 73° East 502 578 39,000  Level Kansas City Center
02:37PM 39.2767 -96.2806 72° East 508 585 39,000  Level Kansas City Center
02:38PM 39.3247 -96.0861 72° East 503 579 39,000  Level Kansas City Center
02:39PM 39.3725 -95.8919 72° East 506 582 39,000  Level Kansas City Center
02:40PM 39.4142 -95.7258 72° East 506 582 39,000  Level Kansas City Center
02:41PM 39.4553 -95.5592 72° East 505 581 39,000  Level Kansas City Center
02:42PM 39.5031 -95.3597 73° East 506 582 39,000  Level Kansas City Center
02:43PM 39.5419 -95.1939 73° East 506 582 39,000  Level Kansas City Center
02:44PM 39.5894 -94.9958 73° East 511 588 39,000  Level Kansas City Center
02:45PM 39.6297 -94.8261 73° East 511 588 39,000  Level Kansas City Center
02:46PM 39.6717 -94.6567 72° East 513 590 39,000  Level Kansas City Center
02:47PM 39.7183 -94.4578 73° East 514 592 39,000  Level Kansas City Center
02:48PM 39.7578 -94.2867 73° East 516 594 39,000  Level Kansas City Center
02:49PM 39.8047 -94.0869 73° East 517 595 39,000  Level Kansas City Center
02:50PM 39.8475 -93.8978 74° East 522 601 39,000  Level Kansas City Center
02:51PM 39.8967 -93.7247 70° East 517 595 39,000  Level Kansas City Center
02:52PM 39.9472 -93.5536 69° East 511 588 39,000  Level Kansas City Center
02:53PM 39.9997 -93.3811 68° East 514 592 39,000 -660 Level Kansas City Center
02:54PM 40.0503 -93.2086 69° East 514 592 37,700 -960 Descending Kansas City Center
02:55PM 40.1028 -93.0233 70° East 517 595 37,000 -360 Descending Kansas City Center
02:56PM 40.1594 -92.8236 70° East 524 603 37,000  Level Kansas City Center
02:57PM 40.2078 -92.6531 70° East 523 602 37,000  Level Kansas City Center
02:58PM 40.2664 -92.4519 69° East 526 605 37,000 -240 Level Kansas City Center
02:59PM 40.3192 -92.2614 70° East 538 619 36,600 -840 Descending Kansas City Center
03:00PM 40.3686 -92.0822 70° East 533 613 35,300 -1,260 Descending Kansas City Center
03:01PM 40.4172 -91.9025 70° East 529 609 34,100 -1,140 Descending Kansas City Center
03:02PM 40.4672 -91.7217 70° East 530 610 33,000 -540 Descending Kansas City Center
03:03PM 40.5258 -91.5031 71° East 533 613 33,000  Level Kansas City Center
03:04PM 40.5369 -91.4669 68° East 533 613 33,000  Level Chicago Center
03:05PM 40.5964 -91.2781 67° East 534 615 33,000 -120 Level Chicago Center
03:06PM 40.6572 -91.1003 66° East 533 613 32,800 -780 Descending Chicago Center
03:07PM 40.7178 -90.9222 66° East 532 612 31,500 -1,380 Descending Chicago Center
03:08PM 40.7783 -90.7411 66° East 537 618 30,000 -1,320 Descending Chicago Center
03:09PM 40.8492 -90.5267 66° East 530 610 28,800 -1,200 Descending Chicago Center
03:10PM 40.9094 -90.3497 66° East 526 605 27,600 -1,020 Descending Chicago Center
03:11PM 40.9619 -90.1917 66° East 512 589 26,700 -1,020 Descending Chicago Center
03:12PM 41.0225 -90.0058 67° East 501 577 25,600 -1,140 Descending Chicago Center
03:13PM 41.0781 -89.8397 66° East 491 565 24,400 -780 Descending Chicago Center
03:14PM 41.1333 -89.6725 66° East 492 566 24,000 -1,020 Descending Chicago Center
03:15PM 41.1922 -89.5083 64° Northeast 492 566 22,400 -1,740 Descending Chicago Center
03:16PM 41.2550 -89.3575 61° Northeast 475 547 20,500 -2,160 Descending Chicago Center
03:17PM 41.3239 -89.1839 62° Northeast 443 510 18,000 -2,280 Descending Chicago Center
03:18PM 41.3800 -89.0419 62° Northeast 424 488 15,900 -2,340 Descending Chicago Center
03:19PM 41.4336 -88.9108 61° Northeast 410 472 13,200 -2,340 Descending Chicago Center
03:20PM 41.4847 -88.7772 63° Northeast 407 468 11,100 -1,080 Descending Chicago Center
03:21PM 41.5328 -88.6558 62° Northeast 377 434 11,000 -60 Descending Chicago Center
03:22PM 41.5850 -88.5386 59° Northeast 370 426 11,000  Level Chicago Center
03:23PM 41.6536 -88.4344 49° Northeast 374 430 11,000 -540 Level Chicago Center
03:24PM 41.7281 -88.3158 50° Northeast 345 397 10,000 -1,080 Descending Chicago Center
03:25PM 41.7842 -88.2278 49° Northeast 315 362 8,800 -1,260 Descending Chicago Center
03:27PM 41.8383 -88.1414 50° Northeast 305 351 7,400 -1,020 Descending Chicago Center
03:27PM 41.8833 -88.0833 44° Northeast 278 320 7,100 -240 Descending Chicago TRACON
03:28PM 41.9333 -88.0333 37° Northeast 225 259 7,000 -240 Descending Chicago TRACON
03:29PM 41.9833 -88.0667 334° Northwest 185 213 6,700 -840 Descending Chicago TRACON
03:30PM 42.0167 -88.1167 312° West 181 208 5,400 -1,200 Descending Chicago TRACON
03:31PM 42.0314 -88.1283 330° Northwest 182 209 5,000 -1,020 Descending Chicago Center
03:32PM 42.0761 -88.1408 348° North 198 228 4,000 -780 Descending Chicago Center
03:32PM 42.1000 -88.1167 37° Northeast 205 236 3,900 -540 Descending Chicago TRACON
03:33PM 42.1000 -88.0500 90° East 186 214 3,300 -600 Descending Chicago TRACON